sensor_id;sensor_type;location;lat;lon;timestamp;P1;durP1;ratioP1;P2;durP2;ratioP2
46875;SDS011;32866;50.160;14.768;2022-10-30T00:00:33;67.03;;;32.10;;
46875;SDS011;32866;50.160;14.768;2022-10-30T00:02:59;64.03;;;32.20;;
46875;SDS011;32866;50.160;14.768;2022-10-30T00:05:24;74.40;;;32.40;;
46875;SDS011;32866;50.160;14.768;2022-10-30T00:07:50;70.93;;;34.47;;
46875;SDS011;32866;50.160;14.768;2022-10-30T00:10:16;68.57;;;35.58;;
46875;SDS011;32866;50.160;14.768;2022-10-30T00:12:42;69.78;;;33.97;;
46875;SDS011;32866;50.160;14.768;2022-10-30T00:15:08;67.70;;;35.97;;
46875;SDS011;32866;50.160;14.768;2022-10-30T00:17:33;63.40;;;34.30;;
46875;SDS011;32866;50.160;14.768;2022-10-30T00:19:59;73.13;;;36.70;;
46875;SDS011;32866;50.160;14.768;2022-10-30T00:22:24;73.90;;;37.78;;
46875;SDS011;32866;50.160;14.768;2022-10-30T00:24:50;70.35;;;35.50;;
46875;SDS011;32866;50.160;14.768;2022-10-30T00:27:15;51.53;;;31.25;;
46875;SDS011;32866;50.160;14.768;2022-10-30T00:29:40;56.22;;;29.88;;
46875;SDS011;32866;50.160;14.768;2022-10-30T00:32:06;44.20;;;28.92;;
46875;SDS011;32866;50.160;14.768;2022-10-30T00:34:31;45.17;;;29.15;;
46875;SDS011;32866;50.160;14.768;2022-10-30T00:36:57;55.53;;;31.45;;
46875;SDS011;32866;50.160;14.768;2022-10-30T00:39:22;51.08;;;29.65;;
46875;SDS011;32866;50.160;14.768;2022-10-30T00:41:47;51.70;;;29.88;;
46875;SDS011;32866;50.160;14.768;2022-10-30T00:47:55;59.43;;;30.90;;
46875;SDS011;32866;50.160;14.768;2022-10-30T00:52:32;61.27;;;30.77;;
46875;SDS011;32866;50.160;14.768;2022-10-30T00:55:11;61.97;;;31.00;;
46875;SDS011;32866;50.160;14.768;2022-10-30T00:57:43;56.17;;;31.30;;
46875;SDS011;32866;50.160;14.768;2022-10-30T01:00:09;59.07;;;31.57;;
46875;SDS011;32866;50.160;14.768;2022-10-30T01:02:37;56.27;;;32.13;;
46875;SDS011;32866;50.160;14.768;2022-10-30T01:05:04;53.70;;;30.93;;
46875;SDS011;32866;50.160;14.768;2022-10-30T01:07:30;52.03;;;29.63;;
46875;SDS011;32866;50.160;14.768;2022-10-30T01:09:55;57.05;;;33.38;;
46875;SDS011;32866;50.160;14.768;2022-10-30T01:12:21;48.50;;;31.40;;
46875;SDS011;32866;50.160;14.768;2022-10-30T01:14:48;54.40;;;30.98;;
46875;SDS011;32866;50.160;14.768;2022-10-30T01:17:23;49.43;;;30.00;;
46875;SDS011;32866;50.160;14.768;2022-10-30T01:28:24;58.03;;;32.73;;
46875;SDS011;32866;50.160;14.768;2022-10-30T01:33:52;52.27;;;30.77;;
46875;SDS011;32866;50.160;14.768;2022-10-30T01:36:42;65.77;;;35.10;;
46875;SDS011;32866;50.160;14.768;2022-10-30T01:39:19;57.53;;;33.40;;
46875;SDS011;32866;50.160;14.768;2022-10-30T01:41:48;62.13;;;34.63;;
46875;SDS011;32866;50.160;14.768;2022-10-30T01:44:15;64.00;;;34.80;;
46875;SDS011;32866;50.160;14.768;2022-10-30T01:49:46;72.53;;;37.87;;
46875;SDS011;32866;50.160;14.768;2022-10-30T01:52:18;71.25;;;35.67;;
46875;SDS011;32866;50.160;14.768;2022-10-30T01:54:52;53.00;;;30.77;;
46875;SDS011;32866;50.160;14.768;2022-10-30T01:57:36;50.30;;;30.10;;
46875;SDS011;32866;50.160;14.768;2022-10-30T02:00:15;51.77;;;31.50;;
46875;SDS011;32866;50.160;14.768;2022-10-30T02:02:41;50.00;;;30.52;;
46875;SDS011;32866;50.160;14.768;2022-10-30T02:05:07;47.38;;;29.27;;
46875;SDS011;32866;50.160;14.768;2022-10-30T02:07:35;65.17;;;30.70;;
46875;SDS011;32866;50.160;14.768;2022-10-30T02:10:01;42.63;;;26.52;;
46875;SDS011;32866;50.160;14.768;2022-10-30T02:12:28;48.00;;;29.07;;
46875;SDS011;32866;50.160;14.768;2022-10-30T02:14:55;44.50;;;27.92;;
46875;SDS011;32866;50.160;14.768;2022-10-30T02:17:22;46.27;;;28.13;;
46875;SDS011;32866;50.160;14.768;2022-10-30T02:19:49;44.73;;;29.80;;
46875;SDS011;32866;50.160;14.768;2022-10-30T02:22:14;44.72;;;27.55;;
46875;SDS011;32866;50.160;14.768;2022-10-30T02:24:42;51.80;;;30.27;;
46875;SDS011;32866;50.160;14.768;2022-10-30T02:27:07;50.55;;;29.67;;
46875;SDS011;32866;50.160;14.768;2022-10-30T02:29:32;55.08;;;32.15;;
46875;SDS011;32866;50.160;14.768;2022-10-30T02:31:58;49.88;;;30.95;;
46875;SDS011;32866;50.160;14.768;2022-10-30T02:34:23;58.38;;;30.95;;
46875;SDS011;32866;50.160;14.768;2022-10-30T02:36:48;58.88;;;31.30;;
46875;SDS011;32866;50.160;14.768;2022-10-30T02:39:14;55.97;;;33.50;;
46875;SDS011;32866;50.160;14.768;2022-10-30T02:41:39;55.55;;;30.40;;
46875;SDS011;32866;50.160;14.768;2022-10-30T02:44:05;48.28;;;30.17;;
46875;SDS011;32866;50.160;14.768;2022-10-30T02:46:30;49.03;;;30.35;;
46875;SDS011;32866;50.160;14.768;2022-10-30T02:48:56;46.13;;;28.20;;
46875;SDS011;32866;50.160;14.768;2022-10-30T02:51:21;55.22;;;30.50;;
46875;SDS011;32866;50.160;14.768;2022-10-30T02:53:47;50.40;;;29.33;;
46875;SDS011;32866;50.160;14.768;2022-10-30T02:56:12;52.65;;;29.75;;
46875;SDS011;32866;50.160;14.768;2022-10-30T02:58:39;44.67;;;27.70;;
46875;SDS011;32866;50.160;14.768;2022-10-30T03:01:06;46.40;;;28.83;;
46875;SDS011;32866;50.160;14.768;2022-10-30T03:03:32;46.93;;;28.83;;
46875;SDS011;32866;50.160;14.768;2022-10-30T03:06:04;47.40;;;29.67;;
46875;SDS011;32866;50.160;14.768;2022-10-30T03:08:30;51.13;;;30.90;;
46875;SDS011;32866;50.160;14.768;2022-10-30T03:11:00;50.15;;;29.25;;
46875;SDS011;32866;50.160;14.768;2022-10-30T03:13:29;39.73;;;25.27;;
46875;SDS011;32866;50.160;14.768;2022-10-30T03:15:59;43.63;;;27.40;;
46875;SDS011;32866;50.160;14.768;2022-10-30T03:18:25;49.37;;;27.97;;
46875;SDS011;32866;50.160;14.768;2022-10-30T03:20:54;46.00;;;28.73;;
46875;SDS011;32866;50.160;14.768;2022-10-30T03:23:20;42.00;;;26.27;;
46875;SDS011;32866;50.160;14.768;2022-10-30T03:25:46;49.10;;;28.83;;
46875;SDS011;32866;50.160;14.768;2022-10-30T03:28:11;42.97;;;29.23;;
46875;SDS011;32866;50.160;14.768;2022-10-30T03:30:36;44.75;;;27.38;;
46875;SDS011;32866;50.160;14.768;2022-10-30T03:33:02;51.42;;;31.05;;
46875;SDS011;32866;50.160;14.768;2022-10-30T03:35:27;45.05;;;28.58;;
46875;SDS011;32866;50.160;14.768;2022-10-30T03:37:52;50.40;;;29.77;;
46875;SDS011;32866;50.160;14.768;2022-10-30T03:40:18;50.78;;;30.50;;
46875;SDS011;32866;50.160;14.768;2022-10-30T03:42:43;54.55;;;28.77;;
46875;SDS011;32866;50.160;14.768;2022-10-30T03:45:08;40.22;;;26.60;;
46875;SDS011;32866;50.160;14.768;2022-10-30T03:47:34;34.03;;;23.08;;
46875;SDS011;32866;50.160;14.768;2022-10-30T03:49:59;39.75;;;24.55;;
46875;SDS011;32866;50.160;14.768;2022-10-30T03:52:26;39.05;;;26.05;;
46875;SDS011;32866;50.160;14.768;2022-10-30T03:54:51;36.53;;;24.50;;
46875;SDS011;32866;50.160;14.768;2022-10-30T03:57:16;43.92;;;27.42;;
46875;SDS011;32866;50.160;14.768;2022-10-30T03:59:42;43.67;;;25.27;;
46875;SDS011;32866;50.160;14.768;2022-10-30T04:02:07;36.67;;;24.20;;
46875;SDS011;32866;50.160;14.768;2022-10-30T04:04:32;37.15;;;25.25;;
46875;SDS011;32866;50.160;14.768;2022-10-30T04:06:58;44.58;;;24.48;;
46875;SDS011;32866;50.160;14.768;2022-10-30T04:09:23;28.80;;;21.17;;
46875;SDS011;32866;50.160;14.768;2022-10-30T04:11:48;31.60;;;21.50;;
46875;SDS011;32866;50.160;14.768;2022-10-30T04:14:14;33.10;;;22.08;;
46875;SDS011;32866;50.160;14.768;2022-10-30T04:16:39;31.00;;;20.98;;
46875;SDS011;32866;50.160;14.768;2022-10-30T04:19:04;37.47;;;23.52;;
46875;SDS011;32866;50.160;14.768;2022-10-30T04:21:30;26.75;;;19.70;;
46875;SDS011;32866;50.160;14.768;2022-10-30T04:23:55;37.33;;;21.77;;
46875;SDS011;32866;50.160;14.768;2022-10-30T04:26:21;32.83;;;21.95;;
46875;SDS011;32866;50.160;14.768;2022-10-30T04:28:46;26.38;;;19.70;;
46875;SDS011;32866;50.160;14.768;2022-10-30T04:31:12;32.03;;;20.23;;
46875;SDS011;32866;50.160;14.768;2022-10-30T04:33:37;31.50;;;20.75;;
46875;SDS011;32866;50.160;14.768;2022-10-30T04:36:02;30.40;;;19.63;;
46875;SDS011;32866;50.160;14.768;2022-10-30T04:38:28;26.67;;;17.08;;
46875;SDS011;32866;50.160;14.768;2022-10-30T04:40:53;33.50;;;19.65;;
46875;SDS011;32866;50.160;14.768;2022-10-30T04:43:19;33.75;;;19.13;;
46875;SDS011;32866;50.160;14.768;2022-10-30T04:45:44;26.15;;;17.45;;
46875;SDS011;32866;50.160;14.768;2022-10-30T04:48:10;25.60;;;16.90;;
46875;SDS011;32866;50.160;14.768;2022-10-30T04:50:38;30.57;;;19.80;;
46875;SDS011;32866;50.160;14.768;2022-10-30T04:53:08;29.27;;;18.05;;
46875;SDS011;32866;50.160;14.768;2022-10-30T04:55:37;25.83;;;16.23;;
46875;SDS011;32866;50.160;14.768;2022-10-30T04:58:03;32.45;;;17.23;;
46875;SDS011;32866;50.160;14.768;2022-10-30T05:00:28;22.95;;;16.27;;
46875;SDS011;32866;50.160;14.768;2022-10-30T05:05:22;21.08;;;15.02;;
46875;SDS011;32866;50.160;14.768;2022-10-30T05:07:47;25.48;;;16.33;;
46875;SDS011;32866;50.160;14.768;2022-10-30T05:10:12;23.45;;;16.40;;
46875;SDS011;32866;50.160;14.768;2022-10-30T05:12:40;24.23;;;16.93;;
46875;SDS011;32866;50.160;14.768;2022-10-30T05:15:06;23.07;;;15.83;;
46875;SDS011;32866;50.160;14.768;2022-10-30T05:17:32;19.08;;;14.45;;
46875;SDS011;32866;50.160;14.768;2022-10-30T05:19:57;20.67;;;15.75;;
46875;SDS011;32866;50.160;14.768;2022-10-30T05:22:23;20.25;;;14.85;;
46875;SDS011;32866;50.160;14.768;2022-10-30T05:24:48;19.70;;;14.75;;
46875;SDS011;32866;50.160;14.768;2022-10-30T05:27:14;24.30;;;16.30;;
46875;SDS011;32866;50.160;14.768;2022-10-30T05:29:39;29.40;;;15.38;;
46875;SDS011;32866;50.160;14.768;2022-10-30T05:32:05;22.10;;;14.88;;
46875;SDS011;32866;50.160;14.768;2022-10-30T05:34:30;25.25;;;15.05;;
46875;SDS011;32866;50.160;14.768;2022-10-30T05:36:55;23.45;;;14.70;;
46875;SDS011;32866;50.160;14.768;2022-10-30T05:39:21;30.05;;;14.07;;
46875;SDS011;32866;50.160;14.768;2022-10-30T05:41:46;23.38;;;14.88;;
46875;SDS011;32866;50.160;14.768;2022-10-30T05:44:11;19.70;;;14.88;;
46875;SDS011;32866;50.160;14.768;2022-10-30T05:46:37;20.92;;;13.85;;
46875;SDS011;32866;50.160;14.768;2022-10-30T05:49:02;22.45;;;14.95;;
46875;SDS011;32866;50.160;14.768;2022-10-30T05:51:28;22.17;;;14.88;;
46875;SDS011;32866;50.160;14.768;2022-10-30T05:53:53;22.25;;;14.98;;
46875;SDS011;32866;50.160;14.768;2022-10-30T05:56:18;20.08;;;13.80;;
46875;SDS011;32866;50.160;14.768;2022-10-30T05:58:44;27.25;;;13.63;;
46875;SDS011;32866;50.160;14.768;2022-10-30T06:01:09;18.08;;;12.90;;
46875;SDS011;32866;50.160;14.768;2022-10-30T06:03:34;21.02;;;15.02;;
46875;SDS011;32866;50.160;14.768;2022-10-30T06:06:00;20.20;;;14.52;;
46875;SDS011;32866;50.160;14.768;2022-10-30T06:08:25;16.48;;;13.48;;
46875;SDS011;32866;50.160;14.768;2022-10-30T06:10:52;21.35;;;13.38;;
46875;SDS011;32866;50.160;14.768;2022-10-30T06:13:18;20.50;;;13.23;;
46875;SDS011;32866;50.160;14.768;2022-10-30T06:15:44;18.80;;;13.10;;
46875;SDS011;32866;50.160;14.768;2022-10-30T06:18:09;17.92;;;13.13;;
46875;SDS011;32866;50.160;14.768;2022-10-30T06:20:34;17.50;;;12.73;;
46875;SDS011;32866;50.160;14.768;2022-10-30T06:23:03;16.60;;;13.38;;
46875;SDS011;32866;50.160;14.768;2022-10-30T06:25:32;25.33;;;15.27;;
46875;SDS011;32866;50.160;14.768;2022-10-30T06:27:58;21.53;;;14.73;;
46875;SDS011;32866;50.160;14.768;2022-10-30T06:30:24;22.35;;;13.70;;
46875;SDS011;32866;50.160;14.768;2022-10-30T06:32:59;20.90;;;15.07;;
46875;SDS011;32866;50.160;14.768;2022-10-30T06:35:26;20.70;;;12.77;;
46875;SDS011;32866;50.160;14.768;2022-10-30T06:37:52;19.00;;;13.83;;
46875;SDS011;32866;50.160;14.768;2022-10-30T06:40:19;20.90;;;14.50;;
46875;SDS011;32866;50.160;14.768;2022-10-30T06:42:45;18.83;;;13.27;;
46875;SDS011;32866;50.160;14.768;2022-10-30T06:45:13;23.23;;;13.23;;
46875;SDS011;32866;50.160;14.768;2022-10-30T06:47:39;19.77;;;14.27;;
46875;SDS011;32866;50.160;14.768;2022-10-30T06:50:09;23.52;;;13.23;;
46875;SDS011;32866;50.160;14.768;2022-10-30T06:52:36;19.30;;;14.20;;
46875;SDS011;32866;50.160;14.768;2022-10-30T06:55:02;20.83;;;13.18;;
46875;SDS011;32866;50.160;14.768;2022-10-30T06:57:28;17.33;;;12.97;;
46875;SDS011;32866;50.160;14.768;2022-10-30T06:59:53;16.42;;;12.07;;
46875;SDS011;32866;50.160;14.768;2022-10-30T07:02:19;18.98;;;12.60;;
46875;SDS011;32866;50.160;14.768;2022-10-30T07:04:44;17.45;;;13.15;;
46875;SDS011;32866;50.160;14.768;2022-10-30T07:07:10;21.83;;;13.68;;
46875;SDS011;32866;50.160;14.768;2022-10-30T07:09:36;22.07;;;12.63;;
46875;SDS011;32866;50.160;14.768;2022-10-30T07:12:01;19.20;;;12.73;;
46875;SDS011;32866;50.160;14.768;2022-10-30T07:14:27;20.50;;;12.18;;
46875;SDS011;32866;50.160;14.768;2022-10-30T07:16:53;14.10;;;11.80;;
46875;SDS011;32866;50.160;14.768;2022-10-30T07:19:19;19.80;;;12.40;;
46875;SDS011;32866;50.160;14.768;2022-10-30T07:21:44;18.80;;;12.77;;
46875;SDS011;32866;50.160;14.768;2022-10-30T07:24:10;16.83;;;12.85;;
46875;SDS011;32866;50.160;14.768;2022-10-30T07:26:35;17.33;;;12.10;;
46875;SDS011;32866;50.160;14.768;2022-10-30T07:29:02;29.63;;;13.40;;
46875;SDS011;32866;50.160;14.768;2022-10-30T07:31:28;15.25;;;11.40;;
46875;SDS011;32866;50.160;14.768;2022-10-30T07:33:53;19.98;;;12.25;;
46875;SDS011;32866;50.160;14.768;2022-10-30T07:36:18;17.63;;;12.43;;
46875;SDS011;32866;50.160;14.768;2022-10-30T07:38:44;21.75;;;13.55;;
46875;SDS011;32866;50.160;14.768;2022-10-30T07:41:09;17.73;;;13.10;;
46875;SDS011;32866;50.160;14.768;2022-10-30T07:43:34;18.02;;;13.45;;
46875;SDS011;32866;50.160;14.768;2022-10-30T07:46:00;14.90;;;11.77;;
46875;SDS011;32866;50.160;14.768;2022-10-30T07:48:25;18.15;;;13.18;;
46875;SDS011;32866;50.160;14.768;2022-10-30T07:50:51;21.23;;;13.02;;
46875;SDS011;32866;50.160;14.768;2022-10-30T07:53:16;19.77;;;12.70;;
46875;SDS011;32866;50.160;14.768;2022-10-30T07:55:41;25.65;;;14.70;;
46875;SDS011;32866;50.160;14.768;2022-10-30T07:58:07;18.48;;;13.52;;
46875;SDS011;32866;50.160;14.768;2022-10-30T08:00:32;21.65;;;14.85;;
46875;SDS011;32866;50.160;14.768;2022-10-30T08:02:57;21.63;;;14.80;;
46875;SDS011;32866;50.160;14.768;2022-10-30T08:05:23;21.33;;;14.77;;
46875;SDS011;32866;50.160;14.768;2022-10-30T08:07:48;23.50;;;14.75;;
46875;SDS011;32866;50.160;14.768;2022-10-30T08:10:14;21.42;;;14.25;;
46875;SDS011;32866;50.160;14.768;2022-10-30T08:12:40;18.52;;;13.55;;
46875;SDS011;32866;50.160;14.768;2022-10-30T08:15:07;25.90;;;15.50;;
46875;SDS011;32866;50.160;14.768;2022-10-30T08:17:39;25.23;;;15.13;;
46875;SDS011;32866;50.160;14.768;2022-10-30T08:20:06;25.33;;;15.83;;
46875;SDS011;32866;50.160;14.768;2022-10-30T08:24:57;23.27;;;14.87;;
46875;SDS011;32866;50.160;14.768;2022-10-30T08:27:23;19.90;;;14.60;;
46875;SDS011;32866;50.160;14.768;2022-10-30T08:29:48;22.98;;;14.93;;
46875;SDS011;32866;50.160;14.768;2022-10-30T08:32:13;20.30;;;15.20;;
46875;SDS011;32866;50.160;14.768;2022-10-30T08:34:39;22.17;;;15.10;;
46875;SDS011;32866;50.160;14.768;2022-10-30T08:37:04;18.95;;;14.23;;
46875;SDS011;32866;50.160;14.768;2022-10-30T08:39:31;23.15;;;16.73;;
46875;SDS011;32866;50.160;14.768;2022-10-30T08:41:57;24.25;;;15.38;;
46875;SDS011;32866;50.160;14.768;2022-10-30T08:44:23;23.40;;;16.03;;
46875;SDS011;32866;50.160;14.768;2022-10-30T08:46:49;23.02;;;15.48;;
46875;SDS011;32866;50.160;14.768;2022-10-30T08:49:14;22.75;;;15.98;;
46875;SDS011;32866;50.160;14.768;2022-10-30T08:51:39;25.98;;;17.23;;
46875;SDS011;32866;50.160;14.768;2022-10-30T08:54:05;22.15;;;15.98;;
46875;SDS011;32866;50.160;14.768;2022-10-30T08:56:30;26.10;;;18.00;;
46875;SDS011;32866;50.160;14.768;2022-10-30T08:58:55;21.70;;;16.98;;
46875;SDS011;32866;50.160;14.768;2022-10-30T09:01:21;22.38;;;15.45;;
46875;SDS011;32866;50.160;14.768;2022-10-30T09:03:46;24.60;;;15.57;;
46875;SDS011;32866;50.160;14.768;2022-10-30T09:06:12;24.65;;;16.08;;
46875;SDS011;32866;50.160;14.768;2022-10-30T09:08:37;25.83;;;16.67;;
46875;SDS011;32866;50.160;14.768;2022-10-30T09:11:02;21.50;;;15.82;;
46875;SDS011;32866;50.160;14.768;2022-10-30T09:13:28;24.75;;;16.20;;
46875;SDS011;32866;50.160;14.768;2022-10-30T09:15:57;22.33;;;15.88;;
46875;SDS011;32866;50.160;14.768;2022-10-30T09:18:23;20.60;;;15.00;;
46875;SDS011;32866;50.160;14.768;2022-10-30T09:20:49;27.55;;;16.25;;
46875;SDS011;32866;50.160;14.768;2022-10-30T09:23:14;22.80;;;15.98;;
46875;SDS011;32866;50.160;14.768;2022-10-30T09:25:39;25.48;;;16.05;;
46875;SDS011;32866;50.160;14.768;2022-10-30T09:30:40;20.85;;;15.02;;
46875;SDS011;32866;50.160;14.768;2022-10-30T09:33:05;22.55;;;16.48;;
46875;SDS011;32866;50.160;14.768;2022-10-30T09:35:31;23.98;;;16.77;;
46875;SDS011;32866;50.160;14.768;2022-10-30T09:37:56;21.65;;;15.68;;
46875;SDS011;32866;50.160;14.768;2022-10-30T09:40:26;29.77;;;16.58;;
46875;SDS011;32866;50.160;14.768;2022-10-30T09:43:50;22.38;;;14.50;;
46875;SDS011;32866;50.160;14.768;2022-10-30T09:46:24;19.73;;;15.10;;
46875;SDS011;32866;50.160;14.768;2022-10-30T09:52:18;20.58;;;14.43;;
46875;SDS011;32866;50.160;14.768;2022-10-30T09:57:53;22.35;;;16.40;;
46875;SDS011;32866;50.160;14.768;2022-10-30T10:00:29;25.88;;;15.68;;
46875;SDS011;32866;50.160;14.768;2022-10-30T10:05:49;24.73;;;16.00;;
46875;SDS011;32866;50.160;14.768;2022-10-30T10:08:23;23.70;;;15.80;;
46875;SDS011;32866;50.160;14.768;2022-10-30T10:11:00;20.45;;;14.95;;
46875;SDS011;32866;50.160;14.768;2022-10-30T10:13:41;23.33;;;15.80;;
46875;SDS011;32866;50.160;14.768;2022-10-30T10:16:18;21.75;;;15.93;;
46875;SDS011;32866;50.160;14.768;2022-10-30T10:18:48;18.75;;;14.20;;
46875;SDS011;32866;50.160;14.768;2022-10-30T10:21:31;20.27;;;14.38;;
46875;SDS011;32866;50.160;14.768;2022-10-30T10:24:08;22.13;;;14.60;;
46875;SDS011;32866;50.160;14.768;2022-10-30T10:27:22;21.00;;;14.55;;
46875;SDS011;32866;50.160;14.768;2022-10-30T10:30:03;19.17;;;14.63;;
46875;SDS011;32866;50.160;14.768;2022-10-30T10:32:39;21.98;;;14.80;;
46875;SDS011;32866;50.160;14.768;2022-10-30T10:38:17;20.13;;;14.95;;
46875;SDS011;32866;50.160;14.768;2022-10-30T10:49:22;17.48;;;14.15;;
46875;SDS011;32866;50.160;14.768;2022-10-30T10:52:09;19.55;;;14.00;;
46875;SDS011;32866;50.160;14.768;2022-10-30T10:54:41;21.50;;;14.90;;
46875;SDS011;32866;50.160;14.768;2022-10-30T10:57:15;19.92;;;14.27;;
46875;SDS011;32866;50.160;14.768;2022-10-30T10:59:49;20.25;;;14.00;;
46875;SDS011;32866;50.160;14.768;2022-10-30T11:02:27;17.95;;;13.85;;
46875;SDS011;32866;50.160;14.768;2022-10-30T11:05:15;17.83;;;13.43;;
46875;SDS011;32866;50.160;14.768;2022-10-30T11:07:49;16.52;;;13.82;;
46875;SDS011;32866;50.160;14.768;2022-10-30T11:12:41;18.73;;;13.95;;
46875;SDS011;32866;50.160;14.768;2022-10-30T11:18:01;17.75;;;13.77;;
46875;SDS011;32866;50.160;14.768;2022-10-30T11:20:28;20.70;;;13.65;;
46875;SDS011;32866;50.160;14.768;2022-10-30T11:23:28;20.15;;;15.43;;
46875;SDS011;32866;50.160;14.768;2022-10-30T11:26:00;16.60;;;13.93;;
46875;SDS011;32866;50.160;14.768;2022-10-30T11:36:42;21.10;;;14.57;;
46875;SDS011;32866;50.160;14.768;2022-10-30T11:39:28;26.33;;;16.13;;
46875;SDS011;32866;50.160;14.768;2022-10-30T11:44:28;21.55;;;16.30;;
46875;SDS011;32866;50.160;14.768;2022-10-30T11:46:57;21.67;;;16.08;;
46875;SDS011;32866;50.160;14.768;2022-10-30T11:49:24;21.85;;;16.05;;
46875;SDS011;32866;50.160;14.768;2022-10-30T11:51:55;21.42;;;15.30;;
46875;SDS011;32866;50.160;14.768;2022-10-30T11:56:47;22.08;;;14.80;;
46875;SDS011;32866;50.160;14.768;2022-10-30T11:59:19;21.92;;;16.27;;
46875;SDS011;32866;50.160;14.768;2022-10-30T12:01:56;24.60;;;15.07;;
46875;SDS011;32866;50.160;14.768;2022-10-30T12:04:27;20.30;;;15.35;;
46875;SDS011;32866;50.160;14.768;2022-10-30T12:09:47;19.13;;;14.27;;
46875;SDS011;32866;50.160;14.768;2022-10-30T12:12:20;20.55;;;15.35;;
46875;SDS011;32866;50.160;14.768;2022-10-30T12:14:48;20.70;;;15.82;;
46875;SDS011;32866;50.160;14.768;2022-10-30T12:17:15;22.13;;;15.68;;
46875;SDS011;32866;50.160;14.768;2022-10-30T12:19:45;22.25;;;16.30;;
46875;SDS011;32866;50.160;14.768;2022-10-30T12:22:27;19.95;;;14.77;;
46875;SDS011;32866;50.160;14.768;2022-10-30T12:24:55;23.10;;;15.95;;
46875;SDS011;32866;50.160;14.768;2022-10-30T12:27:21;20.33;;;15.43;;
46875;SDS011;32866;50.160;14.768;2022-10-30T12:32:23;18.95;;;15.20;;
46875;SDS011;32866;50.160;14.768;2022-10-30T12:34:59;20.95;;;16.65;;
46875;SDS011;32866;50.160;14.768;2022-10-30T12:37:33;24.00;;;16.73;;
46875;SDS011;32866;50.160;14.768;2022-10-30T12:42:34;21.52;;;16.45;;
46875;SDS011;32866;50.160;14.768;2022-10-30T12:47:44;23.42;;;17.27;;
46875;SDS011;32866;50.160;14.768;2022-10-30T12:52:45;19.90;;;16.60;;
46875;SDS011;32866;50.160;14.768;2022-10-30T12:58:09;22.25;;;16.33;;
46875;SDS011;32866;50.160;14.768;2022-10-30T13:01:07;21.02;;;15.05;;
46875;SDS011;32866;50.160;14.768;2022-10-30T13:03:49;20.48;;;15.98;;
46875;SDS011;32866;50.160;14.768;2022-10-30T13:06:25;18.50;;;14.68;;
46875;SDS011;32866;50.160;14.768;2022-10-30T13:09:02;20.77;;;14.82;;
46875;SDS011;32866;50.160;14.768;2022-10-30T13:14:42;18.80;;;14.40;;
46875;SDS011;32866;50.160;14.768;2022-10-30T13:17:12;20.00;;;14.85;;
46875;SDS011;32866;50.160;14.768;2022-10-30T13:27:14;19.90;;;15.70;;
46875;SDS011;32866;50.160;14.768;2022-10-30T13:29:51;21.85;;;16.08;;
46875;SDS011;32866;50.160;14.768;2022-10-30T13:38:12;24.25;;;16.15;;
46875;SDS011;32866;50.160;14.768;2022-10-30T13:40:41;26.70;;;16.48;;
46875;SDS011;32866;50.160;14.768;2022-10-30T13:54:36;23.65;;;17.70;;
46875;SDS011;32866;50.160;14.768;2022-10-30T13:56:39;25.50;;;17.08;;
46875;SDS011;32866;50.160;14.768;2022-10-30T13:59:31;23.05;;;17.35;;
46875;SDS011;32866;50.160;14.768;2022-10-30T14:04:56;23.48;;;15.93;;
46875;SDS011;32866;50.160;14.768;2022-10-30T14:10:20;28.52;;;16.70;;
46875;SDS011;32866;50.160;14.768;2022-10-30T14:25:43;25.88;;;17.75;;
46875;SDS011;32866;50.160;14.768;2022-10-30T14:30:44;27.08;;;16.88;;
46875;SDS011;32866;50.160;14.768;2022-10-30T14:33:52;31.63;;;19.65;;
46875;SDS011;32866;50.160;14.768;2022-10-30T14:36:14;22.77;;;17.40;;
46875;SDS011;32866;50.160;14.768;2022-10-30T14:38:39;27.92;;;17.08;;
46875;SDS011;32866;50.160;14.768;2022-10-30T14:46:43;21.52;;;17.83;;
46875;SDS011;32866;50.160;14.768;2022-10-30T14:49:27;26.42;;;17.63;;
46875;SDS011;32866;50.160;14.768;2022-10-30T15:08:25;26.05;;;19.38;;
46875;SDS011;32866;50.160;14.768;2022-10-30T15:14:03;29.80;;;19.20;;
46875;SDS011;32866;50.160;14.768;2022-10-30T15:16:35;31.38;;;19.80;;
46875;SDS011;32866;50.160;14.768;2022-10-30T15:19:04;27.90;;;20.05;;
46875;SDS011;32866;50.160;14.768;2022-10-30T15:21:33;26.27;;;18.77;;
46875;SDS011;32866;50.160;14.768;2022-10-30T15:24:07;33.30;;;20.65;;
46875;SDS011;32866;50.160;14.768;2022-10-30T15:26:39;29.90;;;19.35;;
46875;SDS011;32866;50.160;14.768;2022-10-30T15:29:05;29.60;;;19.08;;
46875;SDS011;32866;50.160;14.768;2022-10-30T15:31:36;28.23;;;20.08;;
46875;SDS011;32866;50.160;14.768;2022-10-30T15:34:01;32.03;;;19.50;;
46875;SDS011;32866;50.160;14.768;2022-10-30T15:41:52;35.65;;;25.70;;
46875;SDS011;32866;50.160;14.768;2022-10-30T15:44:21;42.67;;;26.67;;
46875;SDS011;32866;50.160;14.768;2022-10-30T15:46:51;50.42;;;28.27;;
46875;SDS011;32866;50.160;14.768;2022-10-30T15:49:27;37.38;;;24.90;;
46875;SDS011;32866;50.160;14.768;2022-10-30T15:51:56;45.58;;;28.45;;
46875;SDS011;32866;50.160;14.768;2022-10-30T15:54:22;40.08;;;24.88;;
46875;SDS011;32866;50.160;14.768;2022-10-30T15:56:49;43.05;;;23.92;;
46875;SDS011;32866;50.160;14.768;2022-10-30T15:59:30;37.33;;;26.48;;
46875;SDS011;32866;50.160;14.768;2022-10-30T16:01:58;41.40;;;28.75;;
46875;SDS011;32866;50.160;14.768;2022-10-30T16:04:24;51.47;;;32.92;;
46875;SDS011;32866;50.160;14.768;2022-10-30T16:06:54;56.10;;;33.03;;
46875;SDS011;32866;50.160;14.768;2022-10-30T16:09:22;46.60;;;32.63;;
46875;SDS011;32866;50.160;14.768;2022-10-30T16:11:49;58.88;;;39.05;;
46875;SDS011;32866;50.160;14.768;2022-10-30T16:14:19;49.03;;;36.65;;
46875;SDS011;32866;50.160;14.768;2022-10-30T16:16:47;50.40;;;37.03;;
46875;SDS011;32866;50.160;14.768;2022-10-30T16:19:17;62.95;;;41.97;;
46875;SDS011;32866;50.160;14.768;2022-10-30T16:21:44;61.53;;;41.78;;
46875;SDS011;32866;50.160;14.768;2022-10-30T16:24:11;66.03;;;42.35;;
46875;SDS011;32866;50.160;14.768;2022-10-30T16:26:37;59.88;;;40.95;;
46875;SDS011;32866;50.160;14.768;2022-10-30T16:31:40;50.85;;;34.83;;
46875;SDS011;32866;50.160;14.768;2022-10-30T16:34:08;55.22;;;38.03;;
46875;SDS011;32866;50.160;14.768;2022-10-30T16:36:38;58.17;;;33.83;;
46875;SDS011;32866;50.160;14.768;2022-10-30T16:39:04;56.35;;;36.88;;
46875;SDS011;32866;50.160;14.768;2022-10-30T16:41:30;62.85;;;43.92;;
46875;SDS011;32866;50.160;14.768;2022-10-30T16:49:12;59.97;;;42.70;;
46875;SDS011;32866;50.160;14.768;2022-10-30T16:51:41;52.30;;;37.85;;
46875;SDS011;32866;50.160;14.768;2022-10-30T16:54:16;55.28;;;35.92;;
46875;SDS011;32866;50.160;14.768;2022-10-30T16:56:43;57.67;;;37.20;;
46875;SDS011;32866;50.160;14.768;2022-10-30T16:59:12;54.97;;;36.30;;
46875;SDS011;32866;50.160;14.768;2022-10-30T17:01:53;50.72;;;34.55;;
46875;SDS011;32866;50.160;14.768;2022-10-30T17:04:21;51.65;;;33.20;;
46875;SDS011;32866;50.160;14.768;2022-10-30T17:06:48;49.85;;;33.95;;